Flight Track Log - Related Links

Times and Time Zones

All times are in EDT time to prevent confusion due to time zone crossing. See the CSJ405 flight status page for this flight to view local times or setup timezone preferences in your user account.

Time Position Orientation Groundspeed Altitude Reporting Facility
EDT Latitude Longitude Course Direction KTS MPH feet Rate Location/Type
Fri 10:24:16 PM 43.1342 -77.6700 325° Northwest 113 130 1,300  Level Cleveland Center
Fri 10:25:17 PM 43.1478 -77.7092 295° West 121 139 2,200 836 Climbing Cleveland Center
Fri 10:26:18 PM 43.1511 -77.7603 275° West 132 152 3,000 793 Climbing Cleveland Center
Fri 10:27:18 PM 43.1522 -77.8086 272° West 135 155 3,800 545 Climbing Cleveland Center
Fri 10:28:19 PM 43.1494 -77.8686 266° West 148 170 4,100 149 Climbing Cleveland Center
Fri 10:29:19 PM 43.1508 -77.9281 272° West 172 198 4,100  Level Cleveland Center
Fri 10:31:10 PM 43.1500 -78.0333 269° West 170 196 4,100  Level Toronto Center
Fri 10:32:10 PM 43.1500 -78.0833 270° West 170 196 4,100  Level Toronto Center
Fri 10:33:10 PM 43.1500 -78.1500 270° West 170 196 4,100 -50 Level Toronto Center
Fri 10:34:10 PM 43.1500 -78.2167 270° West 170 196 4,000 -50 Descending Toronto Center
Fri 10:35:10 PM 43.1500 -78.2833 270° West 170 196 4,000 50 Level Toronto Center
Fri 10:36:10 PM 43.1500 -78.3500 270° West 170 196 4,100 50 Climbing Toronto Center
Fri 10:37:10 PM 43.1500 -78.4167 270° West 170 196 4,100  Level Toronto Center
Fri 10:38:10 PM 43.1500 -78.4833 270° West 170 196 4,100  Level Toronto Center
Fri 10:39:10 PM 43.1667 -78.5667 285° West 180 207 4,100  Level Toronto Center
Fri 10:40:10 PM 43.1667 -78.6333 270° West 180 207 4,100  Level Toronto Center
Fri 10:41:10 PM 43.1667 -78.6667 270° West 180 207 4,100  Level Toronto Center
Fri 10:42:10 PM 43.1667 -78.7500 270° West 180 207 4,100  Level Toronto Center
Fri 10:43:10 PM 43.1667 -78.8167 270° West 170 196 4,100  Level Toronto Center
Fri 10:44:10 PM 43.1667 -78.8833 270° West 170 196 4,100  Level Toronto Center
Fri 10:45:10 PM 43.1667 -78.9500 270° West 180 207 4,100  Level Toronto Center
Fri 10:46:10 PM 43.1667 -79.0167 270° West 180 207 4,100  Level Toronto Center
Fri 10:47:10 PM 43.1667 -79.0833 270° West 180 207 4,100  Level Toronto Center
Fri 10:48:10 PM 43.1667 -79.1500 270° West 180 207 4,100  Level Toronto Center
Fri 10:49:10 PM 43.1667 -79.2167 270° West 170 196 4,100  Level Toronto Center
Fri 10:50:10 PM 43.1667 -79.2833 270° West 170 196 4,100  Level Toronto Center
Fri 10:51:10 PM 43.1667 -79.3333 270° West 170 196 4,100  Level Toronto Center
Fri 10:52:10 PM 43.1667 -79.4000 270° West 170 196 4,100  Level Toronto Center
Fri 10:53:10 PM 43.1667 -79.4667 270° West 170 196 4,100  Level Toronto Center
Fri 10:54:10 PM 43.1667 -79.5500 270° West 170 196 4,100  Level Toronto Center
Fri 10:55:10 PM 43.1667 -79.6167 270° West 170 196 4,100 -150 Level Toronto Center
Fri 10:56:10 PM 43.1667 -79.6833 270° West 180 207 3,800 -600 Descending Toronto Center
Fri 10:57:10 PM 43.1833 -79.7500 289° West 180 207 2,900 -800 Descending Toronto Center
Fri 10:58:10 PM 43.1833 -79.8000 270° West 130 150 2,200 -500 Descending Toronto Center
Fri 10:59:10 PM 43.1833 -79.8333 270° West 120 138 1,900 -350 Descending Toronto Center
Fri 11:00:10 PM 43.1667 -79.8833 245° Southwest 120 138 1,500 -550 Descending Toronto Center
Fri 11:01:10 PM 43.1667 -79.9000 270° West 70 81 800 -350 Descending Toronto Center
Fri 11:02:10 PM 43.1667 -79.9000 270° West 20 23 800  Level Toronto Center

Login

Don't have an account? Register now (free) for customized features, flight alerts, and more!